Time;durP1;ratioP1;P1;durP2;ratioP2;P2;SDS_P1;SDS_P2;PMS_P1;PMS_P2;Temp;Humidity;BMP_temperature;BMP_pressure;BME280_temperature;BME280_humidity;BME280_pressure;Samples;Min_cycle;Max_cycle;Signal;HPM_P1;HPM_P2
2022/08/13 00:01:42;;;;;;;1.55;1.10;;;;;16.00;94265.00;;;;7399823;19;20137;-77
2022/08/13 00:04:18;;;;;;;1.90;1.30;;;;;16.00;94267.00;;;;7401663;19;20140;-78
2022/08/13 00:07:07;;;;;;;1.40;1.30;;;;;16.00;94262.00;;;;7399047;19;20661;-77
2022/08/13 00:09:43;;;;;;;4.18;1.50;;;;;16.10;94258.00;;;;7402847;19;20481;-78
2022/08/13 00:15:28;;;;;;;1.30;1.20;;;;;16.00;94255.00;;;;7394663;19;20137;-78
2022/08/13 00:17:59;;;;;;;1.42;1.33;;;;;15.90;94249.00;;;;7399200;19;20125;-78
2022/08/13 00:20:48;;;;;;;1.80;1.40;;;;;15.80;94243.00;;;;7396322;19;20149;-79
2022/08/13 00:23:23;;;;;;;4.53;1.40;;;;;15.80;94241.00;;;;7399326;19;20133;-79
2022/08/13 00:26:16;;;;;;;1.30;1.20;;;;;15.60;94241.00;;;;7397472;19;20133;-78
2022/08/13 00:29:02;;;;;;;1.50;1.30;;;;;15.70;94234.00;;;;7395874;19;20155;-78
2022/08/13 00:31:37;;;;;;;1.73;1.50;;;;;15.60;94227.00;;;;7398461;19;20128;-77
2022/08/13 00:34:05;;;;;;;2.95;1.52;;;;;15.60;94227.00;;;;7396451;19;20467;-77
2022/08/13 00:36:35;;;;;;;1.27;1.17;;;;;15.70;94222.00;;;;7396171;19;20133;-78
2022/08/13 00:39:10;;;;;;;2.50;1.50;;;;;15.90;94225.00;;;;7396703;19;20493;-76
2022/08/13 00:41:40;;;;;;;2.53;1.17;;;;;15.90;94221.00;;;;7398208;19;20169;-78
2022/08/13 00:44:28;;;;;;;1.85;1.40;;;;;15.80;94220.00;;;;7400023;19;20137;-80
2022/08/13 00:49:50;;;;;;;2.08;1.40;;;;;15.30;94219.00;;;;7399352;19;20129;-79
2022/08/13 00:52:36;;;;;;;3.22;1.38;;;;;15.20;94216.00;;;;7398838;19;20189;-78
2022/08/13 00:55:07;;;;;;;2.72;1.40;;;;;15.30;94225.00;;;;7396331;19;20120;-78
2022/08/13 00:57:50;;;;;;;1.42;1.33;;;;;15.10;94214.00;;;;7398577;19;20151;-78
2022/08/13 01:00:23;;;;;;;3.00;1.35;;;;;15.40;94209.00;;;;7397747;19;20153;-77
2022/08/13 01:02:58;;;;;;;1.80;1.20;;;;;15.30;94212.00;;;;7396557;19;20191;-77
2022/08/13 01:05:45;;;;;;;1.70;1.60;;;;;15.30;94213.00;;;;7393565;19;20194;-77
2022/08/13 01:08:21;;;;;;;1.95;1.48;;;;;15.20;94215.00;;;;7391258;19;20611;-77
2022/08/13 01:10:58;;;;;;;2.60;1.60;;;;;15.20;94211.00;;;;7395746;19;20140;-77
2022/08/13 01:13:46;;;;;;;2.17;1.33;;;;;15.20;94208.00;;;;7394924;19;20239;-77
2022/08/13 01:16:22;;;;;;;1.95;1.48;;;;;15.20;94208.00;;;;7389680;19;20484;-78
2022/08/13 01:18:55;;;;;;;2.83;1.52;;;;;15.10;94214.00;;;;7390614;19;20143;-77
2022/08/13 01:21:30;;;;;;;1.85;1.40;;;;;15.20;94212.00;;;;7391402;19;20151;-77
2022/08/13 01:24:10;;;;;;;3.08;1.35;;;;;15.10;94207.00;;;;7397427;19;20132;-76
2022/08/13 01:26:40;;;;;;;1.50;1.40;;;;;15.10;94209.00;;;;7395212;19;20148;-77
2022/08/13 01:29:18;;;;;;;1.35;1.25;;;;;15.20;94207.00;;;;7394761;19;20629;-77
2022/08/13 01:31:48;;;;;;;1.50;1.40;;;;;15.10;94204.00;;;;7393051;19;20144;-77
2022/08/13 01:34:25;;;;;;;1.73;1.58;;;;;15.20;94210.00;;;;7390974;19;20499;-77
2022/08/13 01:36:54;;;;;;;2.40;1.60;;;;;15.30;94206.00;;;;7390799;19;20166;-77
2022/08/13 01:39:27;;;;;;;1.40;1.30;;;;;15.40;94217.00;;;;7392132;19;21118;-77
2022/08/13 01:42:08;;;;;;;2.55;1.40;;;;;15.50;94210.00;;;;7393916;19;20169;-77
2022/08/13 01:44:36;;;;;;;1.92;1.50;;;;;15.50;94206.00;;;;7394662;19;20623;-77
2022/08/13 01:53:11;;;;;;;3.25;1.60;;;;;15.60;94206.00;;;;7395327;19;20523;-77
2022/08/13 01:55:40;;;;;;;1.75;1.27;;;;;15.60;94213.00;;;;7391155;19;20125;-76
2022/08/13 01:58:34;;;;;;;2.03;1.30;;;;;15.60;94214.00;;;;7391079;19;20151;-79
2022/08/13 02:01:26;;;;;;;1.48;1.38;;;;;15.60;94214.00;;;;7391167;19;20216;-77
2022/08/13 02:04:13;;;;;;;1.40;1.30;;;;;15.60;94215.00;;;;7389655;19;20136;-77
2022/08/13 02:06:52;;;;;;;1.88;1.50;;;;;15.70;94213.00;;;;7392009;19;20137;-76
2022/08/13 02:09:27;;;;;;;5.85;1.77;;;;;15.70;94213.00;;;;7395276;19;20133;-76
2022/08/13 02:12:15;;;;;;;1.80;1.38;;;;;15.70;94211.00;;;;7393154;19;20155;-76
2022/08/13 02:15:12;;;;;;;1.92;1.50;;;;;15.60;94207.00;;;;7388898;19;20659;-77
2022/08/13 02:17:41;;;;;;;1.45;1.35;;;;;15.60;94208.00;;;;7392273;19;20136;-76
2022/08/13 02:20:34;;;;;;;2.83;1.38;;;;;15.50;94211.00;;;;7393752;19;20137;-76
2022/08/13 02:23:05;;;;;;;2.15;1.45;;;;;15.30;94212.00;;;;7390867;19;20726;-76
2022/08/13 02:25:43;;;;;;;2.15;1.42;;;;;15.20;94216.00;;;;7392575;19;20173;-76
2022/08/13 02:28:14;;;;;;;1.70;1.60;;;;;15.30;94211.00;;;;7391128;19;20153;-77
2022/08/13 02:30:57;;;;;;;4.18;1.60;;;;;15.20;94205.00;;;;7392617;19;20150;-77
2022/08/13 02:33:25;;;;;;;1.45;1.35;;;;;15.20;94209.00;;;;7390746;19;20189;-77
2022/08/13 02:36:10;;;;;;;4.63;1.83;;;;;15.10;94200.00;;;;7389793;19;20598;-77
2022/08/13 02:38:42;;;;;;;3.15;1.60;;;;;15.20;94214.00;;;;7389086;19;20139;-77
2022/08/13 02:44:12;;;;;;;1.83;1.52;;;;;15.20;94210.00;;;;7390843;19;20170;-77
2022/08/13 02:47:05;;;;;;;1.80;1.30;;;;;15.20;94205.00;;;;7392568;19;20144;-77
2022/08/13 02:49:36;;;;;;;1.70;1.60;;;;;15.30;94214.00;;;;7390236;19;20164;-77
2022/08/13 02:52:14;;;;;;;1.55;1.42;;;;;15.20;94207.00;;;;7388532;19;20159;-77
2022/08/13 02:54:47;;;;;;;2.30;1.50;;;;;15.20;94204.00;;;;7388991;19;20162;-77
2022/08/13 02:57:24;;;;;;;3.20;1.60;;;;;15.20;94201.00;;;;7392992;19;20583;-77
2022/08/13 02:59:54;;;;;;;2.30;1.40;;;;;15.20;94200.00;;;;7391626;19;20128;-77
2022/08/13 03:02:43;;;;;;;2.15;1.90;;;;;15.10;94205.00;;;;7396816;19;20176;-76
2022/08/13 03:05:21;;;;;;;1.95;1.70;;;;;15.10;94209.00;;;;7395490;19;20165;-76
2022/08/13 03:08:15;;;;;;;1.48;1.38;;;;;15.00;94207.00;;;;7395891;19;20132;-76
2022/08/13 03:11:04;;;;;;;1.70;1.60;;;;;15.00;94213.00;;;;7396839;19;20148;-76
2022/08/13 03:14:02;;;;;;;3.97;1.45;;;;;14.90;94212.00;;;;7395950;19;20176;-76
2022/08/13 03:16:39;;;;;;;3.45;1.63;;;;;15.00;94216.00;;;;7398878;19;20136;-78
2022/08/13 03:19:16;;;;;;;2.97;1.50;;;;;14.90;94215.00;;;;7399124;19;20128;-76
2022/08/13 03:21:43;;;;;;;1.92;1.65;;;;;14.90;94215.00;;;;7397903;19;20620;-75
2022/08/13 03:24:15;;;;;;;2.00;1.73;;;;;14.80;94217.00;;;;7397383;19;20162;-76
2022/08/13 03:27:00;;;;;;;3.72;1.70;;;;;14.50;94222.00;;;;7399870;19;20496;-76
2022/08/13 03:29:28;;;;;;;1.85;1.50;;;;;14.30;94216.00;;;;7398479;19;20136;-76
2022/08/13 03:32:25;;;;;;;1.83;1.50;;;;;14.20;94219.00;;;;7399335;19;20205;-76
2022/08/13 03:35:15;;;;;;;4.05;1.50;;;;;14.10;94225.00;;;;7397671;19;20136;-76
2022/08/13 03:38:12;;;;;;;1.83;1.73;;;;;14.10;94216.00;;;;7397984;19;20145;-76
2022/08/13 03:43:34;;;;;;;1.75;1.65;;;;;14.20;94218.00;;;;7399644;19;20158;-76
2022/08/13 03:46:22;;;;;;;4.82;1.83;;;;;14.10;94218.00;;;;7394344;19;20184;-76
2022/08/13 03:48:56;;;;;;;2.25;1.73;;;;;14.10;94220.00;;;;7399186;19;20545;-77
2022/08/13 03:51:24;;;;;;;2.22;1.83;;;;;14.20;94231.00;;;;7397165;19;20612;-77
2022/08/13 03:54:02;;;;;;;2.40;1.75;;;;;14.20;94227.00;;;;7398788;19;20129;-77
2022/08/13 03:56:37;;;;;;;2.33;1.70;;;;;14.30;94222.00;;;;7395753;19;20451;-77
2022/08/13 03:59:05;;;;;;;2.13;1.83;;;;;14.30;94216.00;;;;7397899;19;20201;-76
2022/08/13 04:01:32;;;;;;;2.10;1.80;;;;;14.40;94222.00;;;;7398564;19;20148;-77
2022/08/13 04:04:23;;;;;;;2.55;2.20;;;;;14.50;94214.00;;;;7394303;19;20125;-76
2022/08/13 04:07:04;;;;;;;2.20;2.00;;;;;14.40;94202.00;;;;7397737;19;20630;-77
2022/08/13 04:09:40;;;;;;;2.97;1.90;;;;;14.40;94200.00;;;;7396237;19;20721;-77
2022/08/13 04:12:22;;;;;;;2.42;2.00;;;;;14.50;94208.00;;;;7392674;19;20607;-76
2022/08/13 04:15:10;;;;;;;2.08;1.88;;;;;14.70;94203.00;;;;7392269;19;20164;-77
2022/08/13 04:17:45;;;;;;;3.90;1.90;;;;;14.60;94198.00;;;;7398619;19;20157;-77
2022/08/13 04:20:20;;;;;;;2.28;1.90;;;;;14.50;94208.00;;;;7397257;19;20124;-76
2022/08/13 04:22:47;;;;;;;8.38;2.28;;;;;14.50;94208.00;;;;7392904;19;20586;-77
2022/08/13 04:25:17;;;;;;;1.80;1.70;;;;;14.60;94203.00;;;;7396639;19;20148;-77
2022/08/13 04:28:07;;;;;;;5.25;2.03;;;;;14.80;94198.00;;;;7397746;19;21309;-77
2022/08/13 04:30:38;;;;;;;2.35;2.10;;;;;14.70;94195.00;;;;7393758;19;20504;-77
2022/08/13 04:33:15;;;;;;;2.58;1.60;;;;;14.70;94190.00;;;;7395844;19;20497;-76
2022/08/13 04:35:56;;;;;;;2.10;1.67;;;;;14.60;94196.00;;;;7393657;19;20175;-78
2022/08/13 04:38:31;;;;;;;4.65;1.70;;;;;14.60;94198.00;;;;7395681;19;20152;-78
2022/08/13 04:41:05;;;;;;;1.75;1.65;;;;;14.50;94200.00;;;;7396478;19;20482;-77
2022/08/13 04:43:41;;;;;;;2.00;1.80;;;;;14.30;94206.00;;;;7393034;19;20155;-77
2022/08/13 04:46:10;;;;;;;3.92;2.17;;;;;14.40;94202.00;;;;7393802;19;20145;-77
2022/08/13 04:48:37;;;;;;;2.42;2.03;;;;;14.50;94207.00;;;;7394147;19;20621;-77
2022/08/13 04:51:14;;;;;;;1.88;1.65;;;;;14.30;94210.00;;;;7394906;19;20135;-77
2022/08/13 04:53:42;;;;;;;3.65;1.92;;;;;14.40;94206.00;;;;7394638;19;20153;-77
2022/08/13 04:56:17;;;;;;;2.15;1.95;;;;;14.40;94210.00;;;;7383546;19;20180;-77
2022/08/13 04:58:52;;;;;;;2.42;2.10;;;;;14.70;94206.00;;;;7392953;19;20482;-77
2022/08/13 05:01:20;;;;;;;3.45;1.80;;;;;14.70;94192.00;;;;7396350;19;20129;-78
2022/08/13 05:04:08;;;;;;;1.95;1.80;;;;;14.90;94192.00;;;;7393899;19;20149;-77
2022/08/13 05:06:51;;;;;;;2.13;1.88;;;;;14.90;94204.00;;;;7395182;19;20172;-78
2022/08/13 05:09:20;;;;;;;1.80;1.70;;;;;14.90;94203.00;;;;7392993;19;20558;-77
2022/08/13 05:11:58;;;;;;;4.20;2.20;;;;;15.20;94206.00;;;;7394041;19;20659;-78
2022/08/13 05:14:38;;;;;;;2.45;1.90;;;;;15.30;94197.00;;;;7392848;19;20240;-76
2022/08/13 05:17:22;;;;;;;5.88;2.03;;;;;15.30;94205.00;;;;7393141;19;20140;-78
2022/08/13 05:19:50;;;;;;;2.03;1.85;;;;;15.40;94206.00;;;;7393403;19;20121;-77
2022/08/13 05:22:26;;;;;;;2.88;2.22;;;;;15.60;94202.00;;;;7392920;19;20628;-78
2022/08/13 05:24:57;;;;;;;2.50;2.30;;;;;15.90;94198.00;;;;7395664;19;20139;-77
2022/08/13 05:27:44;;;;;;;2.58;1.85;;;;;16.10;94195.00;;;;7391998;19;20128;-77
2022/08/13 05:30:18;;;;;;;2.58;1.85;;;;;16.40;94199.00;;;;7389704;19;20131;-77
2022/08/13 05:32:58;;;;;;;2.10;1.80;;;;;16.70;94207.00;;;;7395088;19;20523;-78
2022/08/13 05:35:50;;;;;;;6.80;1.52;;;;;16.90;94213.00;;;;7392169;19;20139;-79
2022/08/13 05:38:39;;;;;;;2.72;2.05;;;;;17.10;94200.00;;;;7391899;19;20135;-78
2022/08/13 05:41:16;;;;;;;1.88;1.77;;;;;17.30;94206.00;;;;7388185;19;20507;-78
2022/08/13 05:43:45;;;;;;;5.28;1.80;;;;;17.50;94195.00;;;;7391343;19;20628;-78
2022/08/13 05:46:20;;;;;;;1.92;1.83;;;;;17.60;94204.00;;;;7390052;19;20131;-79
2022/08/13 05:48:57;;;;;;;1.85;1.60;;;;;17.80;94202.00;;;;7388125;19;20744;-79
2022/08/13 05:51:28;;;;;;;4.90;1.60;;;;;17.90;94209.00;;;;7389171;19;20691;-78
2022/08/13 05:54:23;;;;;;;1.77;1.67;;;;;18.10;94199.00;;;;7389186;19;20139;-79
2022/08/13 05:57:11;;;;;;;1.92;1.83;;;;;18.30;94193.00;;;;7388418;19;20539;-79
2022/08/13 06:05:32;;;;;;;2.60;1.70;;;;;18.70;94201.00;;;;7389464;19;20125;-78
2022/08/13 06:08:15;;;;;;;3.38;1.50;;;;;18.70;94200.00;;;;7391137;19;20128;-79
2022/08/13 06:11:13;;;;;;;2.25;1.65;;;;;18.90;94194.00;;;;7388470;19;20510;-79
2022/08/13 06:13:48;;;;;;;2.25;1.52;;;;;19.00;94196.00;;;;7388242;19;20151;-79
2022/08/13 06:16:39;;;;;;;2.08;1.88;;;;;19.20;94209.00;;;;7388269;19;20129;-77
2022/08/13 06:19:26;;;;;;;3.25;1.75;;;;;19.60;94206.00;;;;7389060;19;20215;-79
2022/08/13 06:22:03;;;;;;;2.20;1.58;;;;;19.60;94202.00;;;;7391708;19;20159;-79
2022/08/13 06:24:35;;;;;;;1.77;1.65;;;;;19.70;94195.00;;;;7387928;19;20176;-76
2022/08/13 06:27:20;;;;;;;2.00;1.75;;;;;19.80;94193.00;;;;7388549;19;20165;-79
2022/08/13 06:30:12;;;;;;;3.35;1.75;;;;;19.80;94190.00;;;;7388601;19;20532;-77
2022/08/13 06:33:01;;;;;;;5.63;1.65;;;;;20.00;94188.00;;;;7390427;19;20121;-78
2022/08/13 06:35:56;;;;;;;2.58;1.73;;;;;19.80;94190.00;;;;7391940;19;20137;-78
2022/08/13 06:38:37;;;;;;;2.47;1.75;;;;;19.90;94198.00;;;;7396372;19;20611;-79
2022/08/13 06:41:18;;;;;;;2.28;1.52;;;;;20.00;94197.00;;;;7397883;19;20487;-79
2022/08/13 06:43:59;;;;;;;1.63;1.52;;;;;20.00;94200.00;;;;7398168;19;20117;-79
2022/08/13 06:46:31;;;;;;;2.38;1.60;;;;;20.40;94193.00;;;;7396091;19;20137;-79
2022/08/13 06:49:12;;;;;;;2.38;1.80;;;;;20.50;94196.00;;;;7395671;19;20125;-79
2022/08/13 06:51:43;;;;;;;2.00;1.75;;;;;20.50;94207.00;;;;7398236;19;20592;-80
2022/08/13 06:54:24;;;;;;;4.50;1.77;;;;;21.00;94202.00;;;;7398061;19;20133;-79
2022/08/13 06:56:58;;;;;;;2.25;1.70;;;;;21.10;94212.00;;;;7395018;19;20132;-78
2022/08/13 06:59:49;;;;;;;2.22;1.80;;;;;21.40;94214.00;;;;7395615;19;20168;-79
2022/08/13 07:02:39;;;;;;;3.35;1.70;;;;;21.30;94217.00;;;;7394256;19;20170;-79
2022/08/13 07:05:16;;;;;;;2.00;1.80;;;;;21.40;94225.00;;;;7395824;19;20140;-80
2022/08/13 07:07:53;;;;;;;3.63;1.75;;;;;21.50;94220.00;;;;7396964;19;20139;-78
2022/08/13 07:10:33;;;;;;;2.00;1.80;;;;;21.80;94219.00;;;;7396912;19;20125;-81
2022/08/13 07:13:02;;;;;;;2.00;1.80;;;;;21.60;94226.00;;;;7394593;19;20117;-78
2022/08/13 07:16:03;;;;;;;3.15;2.10;;;;;21.50;94226.00;;;;7391787;19;20170;-79
2022/08/13 07:18:31;;;;;;;1.88;1.77;;;;;21.90;94228.00;;;;7395314;19;20616;-77
2022/08/13 07:21:15;;;;;;;2.10;1.90;;;;;21.80;94229.00;;;;7396057;19;20577;-79
2022/08/13 07:23:44;;;;;;;3.05;1.80;;;;;22.00;94233.00;;;;7394188;19;20485;-79
2022/08/13 07:26:38;;;;;;;3.65;1.90;;;;;21.70;94229.00;;;;7396407;19;20139;-80
2022/08/13 07:29:13;;;;;;;4.75;1.90;;;;;22.10;94232.00;;;;7393872;19;20455;-79
2022/08/13 07:31:49;;;;;;;1.90;1.77;;;;;21.90;94231.00;;;;7394331;19;20880;-77
2022/08/13 07:34:34;;;;;;;1.70;1.60;;;;;22.30;94226.00;;;;7394351;19;20139;-78
2022/08/13 07:37:19;;;;;;;2.08;1.85;;;;;22.70;94237.00;;;;7393324;19;20626;-78
2022/08/13 07:39:49;;;;;;;1.70;1.60;;;;;22.80;94240.00;;;;7395952;19;20464;-81
2022/08/13 07:42:24;;;;;;;3.88;1.77;;;;;23.10;94238.00;;;;7392949;19;20150;-79
2022/08/13 07:45:01;;;;;;;2.00;1.70;;;;;22.90;94233.00;;;;7394920;19;20144;-80
2022/08/13 07:47:57;;;;;;;4.35;1.75;;;;;23.20;94225.00;;;;7393536;19;20525;-79
2022/08/13 07:50:45;;;;;;;3.03;1.92;;;;;23.60;94230.00;;;;7396522;19;20458;-77
2022/08/13 07:53:36;;;;;;;3.58;1.60;;;;;23.60;94224.00;;;;7394796;19;20137;-79
2022/08/13 07:56:29;;;;;;;2.92;1.73;;;;;23.80;94232.00;;;;7394060;19;20136;-80
2022/08/13 07:59:11;;;;;;;1.80;1.70;;;;;24.10;94222.00;;;;7395353;19;20129;-78
2022/08/13 08:01:51;;;;;;;2.75;1.80;;;;;24.10;94224.00;;;;7393401;19;20951;-79
2022/08/13 08:04:47;;;;;;;4.75;1.85;;;;;24.60;94228.00;;;;7393855;19;20133;-77
2022/08/13 08:07:22;;;;;;;2.28;1.70;;;;;24.90;94227.00;;;;7395799;19;20125;-77
2022/08/13 08:10:18;;;;;;;2.00;1.63;;;;;25.30;94226.00;;;;7395175;19;20117;-79
2022/08/13 08:12:47;;;;;;;3.17;1.90;;;;;25.40;94228.00;;;;7392826;19;20469;-78
2022/08/13 08:15:36;;;;;;;3.22;1.60;;;;;25.80;94227.00;;;;7392955;19;20140;-78
2022/08/13 08:18:32;;;;;;;3.42;1.50;;;;;25.80;94232.00;;;;7393052;19;20635;-79
2022/08/13 08:21:27;;;;;;;1.70;1.60;;;;;26.20;94229.00;;;;7394339;19;20170;-79
2022/08/13 08:24:16;;;;;;;3.58;2.08;;;;;26.00;94235.00;;;;7391559;19;20140;-79
2022/08/13 08:27:05;;;;;;;4.25;1.80;;;;;25.50;94247.00;;;;7394396;19;20133;-80
2022/08/13 08:29:38;;;;;;;3.53;1.60;;;;;25.60;94243.00;;;;7393048;19;20624;-77
2022/08/13 08:32:23;;;;;;;2.60;1.73;;;;;25.70;94238.00;;;;7394473;19;20120;-77
2022/08/13 08:35:03;;;;;;;1.52;1.42;;;;;25.50;94243.00;;;;7393503;19;20141;-77
2022/08/13 08:43:27;;;;;;;2.38;1.60;;;;;25.30;94228.00;;;;7391132;19;21004;-77
2022/08/13 08:46:05;;;;;;;3.17;1.35;;;;;25.10;94228.00;;;;7391707;19;20128;-77
2022/08/13 08:48:41;;;;;;;2.30;1.70;;;;;25.30;94229.00;;;;7392007;19;20147;-77
2022/08/13 08:51:23;;;;;;;3.83;1.90;;;;;25.30;94224.00;;;;7394338;19;20589;-78
2022/08/13 08:54:02;;;;;;;5.35;1.55;;;;;25.80;94237.00;;;;7391939;19;20113;-79
2022/08/13 08:56:55;;;;;;;6.47;1.60;;;;;25.10;94233.00;;;;7390910;19;20125;-80
2022/08/13 08:59:39;;;;;;;1.70;1.55;;;;;25.60;94228.00;;;;7390640;19;20137;-77
2022/08/13 09:02:23;;;;;;;2.83;1.60;;;;;26.20;94225.00;;;;7389345;19;20178;-79
2022/08/13 09:04:57;;;;;;;3.28;1.70;;;;;26.30;94233.00;;;;7392178;19;20145;-76
2022/08/13 09:07:29;;;;;;;1.92;1.70;;;;;26.30;94232.00;;;;7391640;19;20622;-77
2022/08/13 09:09:58;;;;;;;1.85;1.65;;;;;26.70;94230.00;;;;7390981;19;20148;-79
2022/08/13 09:12:36;;;;;;;3.20;1.80;;;;;26.00;94238.00;;;;7391209;19;20136;-78
2022/08/13 09:15:12;;;;;;;4.72;1.60;;;;;25.90;94239.00;;;;7389117;19;20165;-79
2022/08/13 09:17:49;;;;;;;2.00;1.60;;;;;25.70;94233.00;;;;7390195;19;20233;-80
2022/08/13 09:20:23;;;;;;;2.33;1.70;;;;;25.90;94231.00;;;;7392000;19;20140;-79
2022/08/13 09:23:12;;;;;;;3.70;1.80;;;;;26.00;94227.00;;;;7391535;19;20136;-80
2022/08/13 09:25:51;;;;;;;3.35;1.80;;;;;26.30;94223.00;;;;7392415;19;20137;-79
2022/08/13 09:28:26;;;;;;;2.72;1.67;;;;;26.60;94235.00;;;;7391252;19;20143;-80
2022/08/13 09:31:01;;;;;;;5.13;1.80;;;;;26.50;94238.00;;;;7391456;19;20137;-80
2022/08/13 09:33:40;;;;;;;2.17;1.70;;;;;26.30;94234.00;;;;7390433;19;20161;-79
2022/08/13 09:36:45;;;;;;;2.47;1.90;;;;;25.60;94232.00;;;;7389409;19;20150;-79
2022/08/13 09:39:33;;;;;;;3.15;1.70;;;;;25.90;94229.00;;;;7390243;19;20145;-79
2022/08/13 09:42:16;;;;;;;3.20;1.88;;;;;26.10;94226.00;;;;7392018;19;20135;-78
2022/08/13 09:44:54;;;;;;;5.03;1.77;;;;;26.60;94232.00;;;;7389937;19;20157;-78
2022/08/13 09:47:22;;;;;;;1.90;1.80;;;;;26.50;94229.00;;;;7390627;19;20164;-79
2022/08/13 09:50:09;;;;;;;3.13;1.70;;;;;26.60;94224.00;;;;7391483;19;20533;-80
2022/08/13 09:52:44;;;;;;;2.67;1.80;;;;;26.30;94229.00;;;;7389917;19;20144;-80
2022/08/13 09:55:11;;;;;;;3.30;2.00;;;;;26.60;94236.00;;;;7390704;19;20213;-80
2022/08/13 09:57:59;;;;;;;3.88;1.75;;;;;26.70;94223.00;;;;7389403;19;20133;-80
2022/08/13 10:00:46;;;;;;;4.63;1.90;;;;;26.70;94235.00;;;;7391503;19;20137;-79
2022/08/13 10:03:17;;;;;;;2.38;1.60;;;;;26.50;94229.00;;;;7388743;19;20644;-78
2022/08/13 10:05:51;;;;;;;4.68;2.10;;;;;26.70;94218.00;;;;7390078;19;20941;-80
2022/08/13 10:08:20;;;;;;;4.10;2.08;;;;;26.60;94228.00;;;;7390172;19;20614;-77
2022/08/13 10:10:55;;;;;;;4.25;2.10;;;;;26.20;94231.00;;;;7388491;19;20153;-78
2022/08/13 10:13:33;;;;;;;3.42;2.00;;;;;26.30;94222.00;;;;7390033;19;20643;-79
2022/08/13 10:16:23;;;;;;;2.95;2.10;;;;;27.20;94221.00;;;;7385896;19;20208;-79
2022/08/13 10:18:57;;;;;;;5.88;2.40;;;;;27.20;94224.00;;;;7386888;19;20137;-77
2022/08/13 10:21:25;;;;;;;3.38;2.28;;;;;27.10;94226.00;;;;7390055;19;20140;-75
2022/08/13 10:23:54;;;;;;;4.55;2.40;;;;;27.10;94229.00;;;;7390308;19;20592;-79
2022/08/13 10:26:28;;;;;;;5.35;3.13;;;;;27.10;94225.00;;;;7388699;19;20588;-78
2022/08/13 10:28:56;;;;;;;4.25;2.42;;;;;27.20;94221.00;;;;7389009;19;20498;-78
2022/08/13 10:31:28;;;;;;;3.97;2.00;;;;;27.40;94215.00;;;;7390038;19;20457;-78
2022/08/13 10:34:22;;;;;;;4.32;2.72;;;;;27.90;94214.00;;;;7391127;19;20121;-76
2022/08/13 10:37:09;;;;;;;11.57;3.20;;;;;28.20;94211.00;;;;7389944;19;20470;-79
2022/08/13 10:39:43;;;;;;;6.28;3.00;;;;;28.20;94203.00;;;;7390806;19;20616;-78
2022/08/13 10:42:21;;;;;;;4.07;3.60;;;;;27.80;94215.00;;;;7390314;19;20123;-78
2022/08/13 10:44:59;;;;;;;6.50;3.20;;;;;28.20;94217.00;;;;7387837;19;20136;-79
2022/08/13 10:47:26;;;;;;;8.20;2.80;;;;;28.60;94208.00;;;;7388728;19;20610;-79
2022/08/13 10:50:22;;;;;;;4.85;2.35;;;;;28.70;94211.00;;;;7389360;19;20133;-78
2022/08/13 10:52:58;;;;;;;3.72;2.28;;;;;29.00;94208.00;;;;7389049;19;20153;-78
2022/08/13 10:55:27;;;;;;;3.25;2.38;;;;;29.00;94216.00;;;;7388403;19;20149;-77
2022/08/13 10:58:13;;;;;;;4.93;2.10;;;;;28.90;94199.00;;;;7389120;19;20129;-77
2022/08/13 11:01:06;;;;;;;3.72;2.40;;;;;28.70;94214.00;;;;7389363;19;20184;-78
2022/08/13 11:03:44;;;;;;;6.78;2.33;;;;;28.90;94186.00;;;;7386323;19;20529;-77
2022/08/13 11:06:37;;;;;;;1.77;1.60;;;;;28.60;94204.00;;;;7389041;19;20645;-77
2022/08/13 11:09:07;;;;;;;3.53;1.70;;;;;28.60;94214.00;;;;7388768;19;20137;-78
2022/08/13 11:12:00;;;;;;;2.60;1.80;;;;;28.40;94218.00;;;;7388786;19;20612;-78
2022/08/13 11:14:35;;;;;;;3.40;1.60;;;;;28.60;94213.00;;;;7387218;19;20158;-78
2022/08/13 11:17:11;;;;;;;4.40;1.90;;;;;28.60;94200.00;;;;7386606;19;20156;-77
2022/08/13 11:20:05;;;;;;;2.00;1.80;;;;;28.70;94203.00;;;;7382205;19;20154;-79
2022/08/13 11:22:46;;;;;;;1.92;1.73;;;;;28.30;94215.00;;;;7396833;19;20140;-80
2022/08/13 11:25:17;;;;;;;2.75;2.00;;;;;28.40;94214.00;;;;7398116;19;20204;-81
2022/08/13 11:28:15;;;;;;;3.20;1.65;;;;;29.00;94208.00;;;;7398250;19;20121;-78
2022/08/13 11:30:46;;;;;;;5.38;1.98;;;;;29.30;94221.00;;;;7398990;19;20611;-78
2022/08/13 11:33:26;;;;;;;2.58;1.65;;;;;28.20;94206.00;;;;7399716;19;20141;-80
2022/08/13 11:36:13;;;;;;;2.28;1.80;;;;;28.70;94222.00;;;;7396915;19;20216;-80
2022/08/13 11:38:48;;;;;;;2.38;1.67;;;;;27.90;94222.00;;;;7396198;19;20608;-79
2022/08/13 11:41:19;;;;;;;2.80;1.83;;;;;27.00;94249.00;;;;7394989;19;20649;-79
2022/08/13 11:43:48;;;;;;;4.03;1.67;;;;;26.40;94218.00;;;;7396200;19;20184;-77
2022/08/13 11:46:25;;;;;;;1.77;1.40;;;;;27.80;94217.00;;;;7398841;19;20477;-77
2022/08/13 11:48:55;;;;;;;3.13;1.40;;;;;28.90;94205.00;;;;7402463;19;20141;-78
2022/08/13 11:51:47;;;;;;;1.63;1.52;;;;;29.70;94208.00;;;;7400419;19;20137;-78
2022/08/13 11:54:23;;;;;;;3.35;1.63;;;;;29.60;94215.00;;;;7401931;19;20128;-78
2022/08/13 11:57:02;;;;;;;2.47;1.70;;;;;29.30;94216.00;;;;7403537;19;20176;-78
2022/08/13 11:59:30;;;;;;;2.33;1.58;;;;;29.10;94214.00;;;;7398989;19;20184;-79
2022/08/13 12:02:07;;;;;;;2.83;1.65;;;;;28.60;94213.00;;;;7402517;19;20148;-76
2022/08/13 12:04:43;;;;;;;3.17;1.35;;;;;28.50;94217.00;;;;7399969;19;20373;-76
2022/08/13 12:07:24;;;;;;;3.80;1.40;;;;;28.90;94205.00;;;;7399138;19;20140;-76
2022/08/13 12:10:12;;;;;;;4.40;1.58;;;;;29.30;94195.00;;;;7402433;19;20125;-78
2022/08/13 12:13:00;;;;;;;3.13;1.70;;;;;29.60;94208.00;;;;7400514;19;20212;-78
2022/08/13 12:15:42;;;;;;;1.98;1.40;;;;;29.50;94213.00;;;;7397291;19;20152;-77
2022/08/13 12:18:30;;;;;;;1.77;1.60;;;;;29.50;94207.00;;;;7396147;19;20521;-78
2022/08/13 12:21:05;;;;;;;1.63;1.52;;;;;29.40;94205.00;;;;7395710;19;20132;-78
2022/08/13 12:23:44;;;;;;;2.20;1.70;;;;;29.50;94203.00;;;;7397032;19;20472;-78
2022/08/13 12:26:28;;;;;;;1.92;1.58;;;;;29.80;94211.00;;;;7400438;19;20139;-78
2022/08/13 12:28:57;;;;;;;3.45;1.77;;;;;29.50;94202.00;;;;7399207;19;20163;-78
2022/08/13 12:31:32;;;;;;;1.98;1.40;;;;;29.10;94206.00;;;;7396965;19;20660;-77
2022/08/13 12:34:00;;;;;;;3.35;1.58;;;;;29.80;94207.00;;;;7394955;19;20631;-81
2022/08/13 12:36:28;;;;;;;2.60;1.70;;;;;29.80;94205.00;;;;7397956;19;20481;-77
2022/08/13 12:39:03;;;;;;;2.45;1.73;;;;;29.40;94202.00;;;;7394718;19;20297;-79
2022/08/13 12:41:32;;;;;;;2.45;2.03;;;;;29.30;94198.00;;;;7397862;19;20467;-79
2022/08/13 12:44:11;;;;;;;2.88;1.83;;;;;29.60;94205.00;;;;7399667;19;20137;-77
2022/08/13 12:47:06;;;;;;;4.22;1.70;;;;;29.60;94196.00;;;;7395488;19;20145;-76
2022/08/13 12:49:36;;;;;;;2.53;1.85;;;;;29.90;94199.00;;;;7394308;19;20146;-78
2022/08/13 12:52:29;;;;;;;1.48;1.38;;;;;30.10;94194.00;;;;7397470;19;20612;-77
2022/08/13 12:55:00;;;;;;;2.20;1.75;;;;;30.10;94191.00;;;;7400242;19;20144;-79
2022/08/13 12:57:44;;;;;;;2.28;1.67;;;;;29.80;94192.00;;;;7397552;19;20141;-79
2022/08/13 13:00:33;;;;;;;2.08;1.70;;;;;30.20;94187.00;;;;7398110;19;20141;-77
2022/08/13 13:03:07;;;;;;;2.20;1.80;;;;;30.00;94196.00;;;;7393755;19;20179;-77
2022/08/13 13:05:42;;;;;;;3.28;1.50;;;;;30.00;94184.00;;;;7395484;19;20141;-76
2022/08/13 13:08:27;;;;;;;3.42;1.40;;;;;29.80;94188.00;;;;7396954;19;20132;-77
2022/08/13 13:11:08;;;;;;;2.70;1.65;;;;;30.20;94180.00;;;;7394122;19;20144;-77
2022/08/13 13:13:49;;;;;;;1.58;1.40;;;;;30.10;94181.00;;;;7396002;19;20139;-78
2022/08/13 13:16:35;;;;;;;1.75;1.50;;;;;29.80;94179.00;;;;7397025;19;20512;-78
2022/08/13 13:19:24;;;;;;;1.50;1.40;;;;;30.00;94178.00;;;;7394220;19;20149;-77
2022/08/13 13:21:53;;;;;;;1.70;1.60;;;;;30.00;94181.00;;;;7397292;19;20153;-77
2022/08/13 13:24:31;;;;;;;1.58;1.40;;;;;29.80;94180.00;;;;7397610;19;20485;-76
2022/08/13 13:27:20;;;;;;;1.50;1.40;;;;;29.90;94173.00;;;;7395601;19;20656;-77
2022/08/13 13:30:13;;;;;;;1.90;1.50;;;;;29.70;94181.00;;;;7398158;19;20181;-79
2022/08/13 13:32:45;;;;;;;4.55;1.50;;;;;29.60;94189.00;;;;7399002;19;20508;-79
2022/08/13 13:35:20;;;;;;;2.28;1.50;;;;;29.50;94183.00;;;;7401284;19;20136;-78
2022/08/13 13:38:09;;;;;;;1.70;1.60;;;;;29.40;94180.00;;;;7396831;19;20179;-78
2022/08/13 13:40:47;;;;;;;2.17;1.60;;;;;29.10;94180.00;;;;7398662;19;20148;-78
2022/08/13 13:43:19;;;;;;;6.50;1.50;;;;;28.90;94167.00;;;;7397617;19;20165;-77
2022/08/13 13:45:57;;;;;;;1.50;1.40;;;;;29.40;94157.00;;;;7395149;19;20502;-78
2022/08/13 13:48:33;;;;;;;3.58;1.60;;;;;29.40;94159.00;;;;7396627;19;20213;-78